sensor_id;sensor_type;location;lat;lon;timestamp;temperature;humidity
5588;DHT22;2816;49.778;9.986;2022-08-21T00:02:23;18.80;99.90
5588;DHT22;2816;49.778;9.986;2022-08-21T00:04:50;18.80;99.90
5588;DHT22;2816;49.778;9.986;2022-08-21T00:07:18;18.70;99.90
5588;DHT22;2816;49.778;9.986;2022-08-21T00:09:45;18.70;99.90
5588;DHT22;2816;49.778;9.986;2022-08-21T00:12:14;18.70;99.90
5588;DHT22;2816;49.778;9.986;2022-08-21T00:14:41;18.70;99.90
5588;DHT22;2816;49.778;9.986;2022-08-21T00:17:08;18.60;99.90
5588;DHT22;2816;49.778;9.986;2022-08-21T00:19:35;18.50;99.90
5588;DHT22;2816;49.778;9.986;2022-08-21T00:22:02;18.50;99.90
5588;DHT22;2816;49.778;9.986;2022-08-21T00:24:29;18.50;99.90
5588;DHT22;2816;49.778;9.986;2022-08-21T00:26:56;18.40;99.90
5588;DHT22;2816;49.778;9.986;2022-08-21T00:29:24;18.40;99.90
5588;DHT22;2816;49.778;9.986;2022-08-21T00:31:51;18.40;99.90
5588;DHT22;2816;49.778;9.986;2022-08-21T00:34:18;18.40;99.90
5588;DHT22;2816;49.778;9.986;2022-08-21T00:36:45;18.40;99.90
5588;DHT22;2816;49.778;9.986;2022-08-21T00:39:12;18.40;99.90
5588;DHT22;2816;49.778;9.986;2022-08-21T00:41:41;18.40;99.90
5588;DHT22;2816;49.778;9.986;2022-08-21T00:44:11;18.30;99.90
5588;DHT22;2816;49.778;9.986;2022-08-21T00:46:41;18.30;99.90
5588;DHT22;2816;49.778;9.986;2022-08-21T00:49:10;18.30;99.90
5588;DHT22;2816;49.778;9.986;2022-08-21T00:51:42;18.30;99.90
5588;DHT22;2816;49.778;9.986;2022-08-21T00:54:10;18.30;99.90
5588;DHT22;2816;49.778;9.986;2022-08-21T00:56:38;18.20;99.90
5588;DHT22;2816;49.778;9.986;2022-08-21T00:59:05;18.20;99.90
5588;DHT22;2816;49.778;9.986;2022-08-21T01:01:33;18.20;99.90
5588;DHT22;2816;49.778;9.986;2022-08-21T01:04:01;18.10;99.90
5588;DHT22;2816;49.778;9.986;2022-08-21T01:06:28;18.20;99.90
5588;DHT22;2816;49.778;9.986;2022-08-21T01:08:55;18.20;99.90
5588;DHT22;2816;49.778;9.986;2022-08-21T01:11:22;18.10;99.90
5588;DHT22;2816;49.778;9.986;2022-08-21T01:13:49;18.10;99.90
5588;DHT22;2816;49.778;9.986;2022-08-21T01:16:19;18.10;99.90
5588;DHT22;2816;49.778;9.986;2022-08-21T01:18:48;18.00;99.90
5588;DHT22;2816;49.778;9.986;2022-08-21T01:21:20;18.00;99.90
5588;DHT22;2816;49.778;9.986;2022-08-21T01:23:48;17.90;99.90
5588;DHT22;2816;49.778;9.986;2022-08-21T01:26:18;17.90;99.90
5588;DHT22;2816;49.778;9.986;2022-08-21T01:28:49;17.90;99.90
5588;DHT22;2816;49.778;9.986;2022-08-21T01:31:19;17.90;99.90
5588;DHT22;2816;49.778;9.986;2022-08-21T01:33:48;18.00;99.90
5588;DHT22;2816;49.778;9.986;2022-08-21T01:36:17;17.90;99.90
5588;DHT22;2816;49.778;9.986;2022-08-21T01:38:44;17.90;99.90
5588;DHT22;2816;49.778;9.986;2022-08-21T01:41:12;17.80;99.90
5588;DHT22;2816;49.778;9.986;2022-08-21T01:43:40;17.80;99.90
5588;DHT22;2816;49.778;9.986;2022-08-21T01:46:08;17.90;99.90
5588;DHT22;2816;49.778;9.986;2022-08-21T01:48:36;17.70;99.90
5588;DHT22;2816;49.778;9.986;2022-08-21T01:51:05;17.70;99.90
5588;DHT22;2816;49.778;9.986;2022-08-21T01:53:35;17.60;99.90
5588;DHT22;2816;49.778;9.986;2022-08-21T01:56:03;17.60;99.90
5588;DHT22;2816;49.778;9.986;2022-08-21T01:58:30;17.60;99.90
5588;DHT22;2816;49.778;9.986;2022-08-21T02:00:58;17.60;99.90
5588;DHT22;2816;49.778;9.986;2022-08-21T02:03:27;17.60;99.90
5588;DHT22;2816;49.778;9.986;2022-08-21T02:05:54;17.60;99.90
5588;DHT22;2816;49.778;9.986;2022-08-21T02:08:21;17.60;99.90
5588;DHT22;2816;49.778;9.986;2022-08-21T02:10:51;17.60;99.90
5588;DHT22;2816;49.778;9.986;2022-08-21T02:13:18;17.60;99.90
5588;DHT22;2816;49.778;9.986;2022-08-21T02:15:45;17.50;99.90
5588;DHT22;2816;49.778;9.986;2022-08-21T02:18:12;17.50;99.90
5588;DHT22;2816;49.778;9.986;2022-08-21T02:20:42;17.50;99.90
5588;DHT22;2816;49.778;9.986;2022-08-21T02:23:11;17.50;99.90
5588;DHT22;2816;49.778;9.986;2022-08-21T02:25:38;17.50;99.90
5588;DHT22;2816;49.778;9.986;2022-08-21T02:28:09;17.50;99.90
5588;DHT22;2816;49.778;9.986;2022-08-21T02:30:39;17.50;99.90
5588;DHT22;2816;49.778;9.986;2022-08-21T02:33:08;17.40;99.90
5588;DHT22;2816;49.778;9.986;2022-08-21T02:35:35;17.40;99.90
5588;DHT22;2816;49.778;9.986;2022-08-21T02:38:05;17.40;99.90
5588;DHT22;2816;49.778;9.986;2022-08-21T02:40:34;17.40;99.90
5588;DHT22;2816;49.778;9.986;2022-08-21T02:43:03;17.40;99.90
5588;DHT22;2816;49.778;9.986;2022-08-21T02:45:32;17.40;99.90
5588;DHT22;2816;49.778;9.986;2022-08-21T02:48:01;17.30;99.90
5588;DHT22;2816;49.778;9.986;2022-08-21T02:50:30;17.30;99.90
5588;DHT22;2816;49.778;9.986;2022-08-21T02:52:58;17.30;99.90
5588;DHT22;2816;49.778;9.986;2022-08-21T02:55:28;17.30;99.90
5588;DHT22;2816;49.778;9.986;2022-08-21T02:57:56;17.20;99.90
5588;DHT22;2816;49.778;9.986;2022-08-21T03:00:25;17.20;99.90
5588;DHT22;2816;49.778;9.986;2022-08-21T03:02:54;17.20;99.90
5588;DHT22;2816;49.778;9.986;2022-08-21T03:05:23;17.20;99.90
5588;DHT22;2816;49.778;9.986;2022-08-21T03:07:50;17.20;99.90
5588;DHT22;2816;49.778;9.986;2022-08-21T03:10:19;17.00;99.90
5588;DHT22;2816;49.778;9.986;2022-08-21T03:12:47;17.00;99.90
5588;DHT22;2816;49.778;9.986;2022-08-21T03:15:16;17.00;99.90
5588;DHT22;2816;49.778;9.986;2022-08-21T03:17:44;16.90;99.90
5588;DHT22;2816;49.778;9.986;2022-08-21T03:20:14;17.00;99.90
5588;DHT22;2816;49.778;9.986;2022-08-21T03:22:41;16.90;99.90
5588;DHT22;2816;49.778;9.986;2022-08-21T03:25:09;16.90;99.90
5588;DHT22;2816;49.778;9.986;2022-08-21T03:27:37;17.00;99.90
5588;DHT22;2816;49.778;9.986;2022-08-21T03:30:06;16.90;99.90
5588;DHT22;2816;49.778;9.986;2022-08-21T03:32:34;16.90;99.90
5588;DHT22;2816;49.778;9.986;2022-08-21T03:35:02;16.90;99.90
5588;DHT22;2816;49.778;9.986;2022-08-21T03:37:30;16.90;99.90
5588;DHT22;2816;49.778;9.986;2022-08-21T03:39:57;16.90;99.90
5588;DHT22;2816;49.778;9.986;2022-08-21T03:42:24;16.80;99.90
5588;DHT22;2816;49.778;9.986;2022-08-21T03:44:51;16.80;99.90
5588;DHT22;2816;49.778;9.986;2022-08-21T03:47:18;16.80;99.90
5588;DHT22;2816;49.778;9.986;2022-08-21T03:49:45;16.80;99.90
5588;DHT22;2816;49.778;9.986;2022-08-21T03:52:12;16.70;99.90
5588;DHT22;2816;49.778;9.986;2022-08-21T03:54:40;16.70;99.90
5588;DHT22;2816;49.778;9.986;2022-08-21T03:57:08;16.70;99.90
5588;DHT22;2816;49.778;9.986;2022-08-21T03:59:36;16.70;99.90
5588;DHT22;2816;49.778;9.986;2022-08-21T04:02:06;16.60;99.90
5588;DHT22;2816;49.778;9.986;2022-08-21T04:04:34;16.60;99.90
5588;DHT22;2816;49.778;9.986;2022-08-21T04:07:01;16.50;99.90
5588;DHT22;2816;49.778;9.986;2022-08-21T04:09:29;16.50;99.90
5588;DHT22;2816;49.778;9.986;2022-08-21T04:11:58;16.50;99.90
5588;DHT22;2816;49.778;9.986;2022-08-21T04:14:25;16.50;99.90
5588;DHT22;2816;49.778;9.986;2022-08-21T04:16:53;16.50;99.90
5588;DHT22;2816;49.778;9.986;2022-08-21T04:19:20;16.50;99.90
5588;DHT22;2816;49.778;9.986;2022-08-21T04:21:46;16.40;99.90
5588;DHT22;2816;49.778;9.986;2022-08-21T04:24:15;16.50;99.90
5588;DHT22;2816;49.778;9.986;2022-08-21T04:26:42;16.40;99.90
5588;DHT22;2816;49.778;9.986;2022-08-21T04:29:10;16.40;99.90
5588;DHT22;2816;49.778;9.986;2022-08-21T04:31:38;16.40;99.90
5588;DHT22;2816;49.778;9.986;2022-08-21T04:34:05;16.20;99.90
5588;DHT22;2816;49.778;9.986;2022-08-21T04:36:32;16.10;99.90
5588;DHT22;2816;49.778;9.986;2022-08-21T04:38:59;16.10;99.90
5588;DHT22;2816;49.778;9.986;2022-08-21T04:41:27;16.10;99.90
5588;DHT22;2816;49.778;9.986;2022-08-21T04:43:54;16.10;99.90
5588;DHT22;2816;49.778;9.986;2022-08-21T04:46:23;16.10;99.90
5588;DHT22;2816;49.778;9.986;2022-08-21T04:48:50;16.10;99.90
5588;DHT22;2816;49.778;9.986;2022-08-21T04:51:22;16.10;99.90
5588;DHT22;2816;49.778;9.986;2022-08-21T04:53:52;16.20;99.90
5588;DHT22;2816;49.778;9.986;2022-08-21T04:56:22;16.20;99.90
5588;DHT22;2816;49.778;9.986;2022-08-21T04:58:51;16.20;99.90
5588;DHT22;2816;49.778;9.986;2022-08-21T05:01:21;16.20;99.90
5588;DHT22;2816;49.778;9.986;2022-08-21T05:03:53;16.10;99.90
5588;DHT22;2816;49.778;9.986;2022-08-21T05:06:23;16.10;99.90
5588;DHT22;2816;49.778;9.986;2022-08-21T05:08:53;16.10;99.90
5588;DHT22;2816;49.778;9.986;2022-08-21T05:11:21;16.10;99.90
5588;DHT22;2816;49.778;9.986;2022-08-21T05:13:49;16.10;99.90
5588;DHT22;2816;49.778;9.986;2022-08-21T05:16:16;16.10;99.90
5588;DHT22;2816;49.778;9.986;2022-08-21T05:18:43;16.10;99.90
5588;DHT22;2816;49.778;9.986;2022-08-21T05:21:12;16.20;99.90
5588;DHT22;2816;49.778;9.986;2022-08-21T05:23:39;16.20;99.90
5588;DHT22;2816;49.778;9.986;2022-08-21T05:26:06;16.20;99.90
5588;DHT22;2816;49.778;9.986;2022-08-21T05:28:32;16.20;99.90
5588;DHT22;2816;49.778;9.986;2022-08-21T05:30:59;16.30;99.90
5588;DHT22;2816;49.778;9.986;2022-08-21T05:33:27;16.30;99.90
5588;DHT22;2816;49.778;9.986;2022-08-21T05:35:54;16.20;99.90
5588;DHT22;2816;49.778;9.986;2022-08-21T05:38:24;16.30;99.90
5588;DHT22;2816;49.778;9.986;2022-08-21T05:40:53;16.30;99.90
5588;DHT22;2816;49.778;9.986;2022-08-21T05:43:20;16.30;99.90
5588;DHT22;2816;49.778;9.986;2022-08-21T05:45:47;16.40;99.90
5588;DHT22;2816;49.778;9.986;2022-08-21T05:48:17;16.40;99.90
5588;DHT22;2816;49.778;9.986;2022-08-21T05:50:45;16.40;99.90
5588;DHT22;2816;49.778;9.986;2022-08-21T05:53:12;16.40;99.90
5588;DHT22;2816;49.778;9.986;2022-08-21T05:55:41;16.40;99.90
5588;DHT22;2816;49.778;9.986;2022-08-21T05:58:08;16.50;99.90
5588;DHT22;2816;49.778;9.986;2022-08-21T06:00:36;16.50;99.90
5588;DHT22;2816;49.778;9.986;2022-08-21T06:03:03;16.50;99.90
5588;DHT22;2816;49.778;9.986;2022-08-21T06:05:30;16.50;99.90
5588;DHT22;2816;49.778;9.986;2022-08-21T06:07:57;16.60;99.90
5588;DHT22;2816;49.778;9.986;2022-08-21T06:10:24;16.70;99.90
5588;DHT22;2816;49.778;9.986;2022-08-21T06:12:54;16.70;99.90
5588;DHT22;2816;49.778;9.986;2022-08-21T06:15:21;16.70;99.90
5588;DHT22;2816;49.778;9.986;2022-08-21T06:17:48;16.80;99.90
5588;DHT22;2816;49.778;9.986;2022-08-21T06:20:15;16.80;99.90
5588;DHT22;2816;49.778;9.986;2022-08-21T06:22:42;16.80;99.90
5588;DHT22;2816;49.778;9.986;2022-08-21T06:25:09;16.90;99.90
5588;DHT22;2816;49.778;9.986;2022-08-21T06:27:37;16.90;99.90
5588;DHT22;2816;49.778;9.986;2022-08-21T06:30:07;17.00;99.90
5588;DHT22;2816;49.778;9.986;2022-08-21T06:32:34;17.00;99.90
5588;DHT22;2816;49.778;9.986;2022-08-21T06:35:02;17.00;99.90
5588;DHT22;2816;49.778;9.986;2022-08-21T06:37:29;17.10;99.90
5588;DHT22;2816;49.778;9.986;2022-08-21T06:39:56;17.10;99.90
5588;DHT22;2816;49.778;9.986;2022-08-21T06:42:23;17.10;99.90
5588;DHT22;2816;49.778;9.986;2022-08-21T06:44:50;17.10;99.90
5588;DHT22;2816;49.778;9.986;2022-08-21T06:47:19;17.10;99.90
5588;DHT22;2816;49.778;9.986;2022-08-21T06:49:46;17.20;99.90
5588;DHT22;2816;49.778;9.986;2022-08-21T06:52:13;17.40;99.90
5588;DHT22;2816;49.778;9.986;2022-08-21T06:54:40;17.60;99.90
5588;DHT22;2816;49.778;9.986;2022-08-21T06:57:07;17.80;99.90
5588;DHT22;2816;49.778;9.986;2022-08-21T06:59:34;17.90;99.90
5588;DHT22;2816;49.778;9.986;2022-08-21T07:02:01;17.90;99.90
5588;DHT22;2816;49.778;9.986;2022-08-21T07:04:30;17.90;99.90
5588;DHT22;2816;49.778;9.986;2022-08-21T07:06:57;17.90;99.90
5588;DHT22;2816;49.778;9.986;2022-08-21T07:09:24;17.90;99.90
5588;DHT22;2816;49.778;9.986;2022-08-21T07:11:54;17.90;99.90
5588;DHT22;2816;49.778;9.986;2022-08-21T07:14:22;17.90;99.90
5588;DHT22;2816;49.778;9.986;2022-08-21T07:16:49;17.90;99.90
5588;DHT22;2816;49.778;9.986;2022-08-21T07:19:17;17.90;99.90
5588;DHT22;2816;49.778;9.986;2022-08-21T07:21:46;18.00;99.90
5588;DHT22;2816;49.778;9.986;2022-08-21T07:24:13;18.10;99.90
5588;DHT22;2816;49.778;9.986;2022-08-21T07:26:40;18.20;99.90
5588;DHT22;2816;49.778;9.986;2022-08-21T07:29:07;18.30;99.90
5588;DHT22;2816;49.778;9.986;2022-08-21T07:31:35;18.30;99.90
5588;DHT22;2816;49.778;9.986;2022-08-21T07:34:02;18.30;99.90
5588;DHT22;2816;49.778;9.986;2022-08-21T07:36:29;18.20;99.90
5588;DHT22;2816;49.778;9.986;2022-08-21T07:38:57;18.40;99.90
5588;DHT22;2816;49.778;9.986;2022-08-21T07:41:27;18.50;99.90
5588;DHT22;2816;49.778;9.986;2022-08-21T07:43:54;18.50;99.90
5588;DHT22;2816;49.778;9.986;2022-08-21T07:46:23;18.70;99.90
5588;DHT22;2816;49.778;9.986;2022-08-21T07:48:50;18.80;99.90
5588;DHT22;2816;49.778;9.986;2022-08-21T07:51:19;18.90;99.90
5588;DHT22;2816;49.778;9.986;2022-08-21T07:53:48;18.80;99.90
5588;DHT22;2816;49.778;9.986;2022-08-21T07:56:18;18.80;99.90
5588;DHT22;2816;49.778;9.986;2022-08-21T07:58:46;18.90;99.90
5588;DHT22;2816;49.778;9.986;2022-08-21T08:01:13;18.90;99.90
5588;DHT22;2816;49.778;9.986;2022-08-21T08:03:40;18.90;99.90
5588;DHT22;2816;49.778;9.986;2022-08-21T08:06:07;19.00;99.90
5588;DHT22;2816;49.778;9.986;2022-08-21T08:08:38;19.10;99.90
5588;DHT22;2816;49.778;9.986;2022-08-21T08:11:06;19.20;99.90
5588;DHT22;2816;49.778;9.986;2022-08-21T08:13:40;19.30;99.90
5588;DHT22;2816;49.778;9.986;2022-08-21T08:16:07;19.30;99.90
5588;DHT22;2816;49.778;9.986;2022-08-21T08:18:34;19.30;99.90
5588;DHT22;2816;49.778;9.986;2022-08-21T08:21:01;19.40;99.90
5588;DHT22;2816;49.778;9.986;2022-08-21T08:23:28;19.50;99.90
5588;DHT22;2816;49.778;9.986;2022-08-21T08:25:56;19.60;99.90
5588;DHT22;2816;49.778;9.986;2022-08-21T08:28:23;19.70;99.90
5588;DHT22;2816;49.778;9.986;2022-08-21T08:30:51;19.70;99.90
5588;DHT22;2816;49.778;9.986;2022-08-21T08:33:18;19.90;99.90
5588;DHT22;2816;49.778;9.986;2022-08-21T08:35:49;19.90;99.90
5588;DHT22;2816;49.778;9.986;2022-08-21T08:38:17;19.90;99.90
5588;DHT22;2816;49.778;9.986;2022-08-21T08:40:49;20.00;99.90
5588;DHT22;2816;49.778;9.986;2022-08-21T08:43:21;20.10;99.90
5588;DHT22;2816;49.778;9.986;2022-08-21T08:45:53;20.10;99.90
5588;DHT22;2816;49.778;9.986;2022-08-21T08:48:36;20.10;99.90
5588;DHT22;2816;49.778;9.986;2022-08-21T08:51:09;20.20;99.90
5588;DHT22;2816;49.778;9.986;2022-08-21T08:53:48;20.50;99.90
5588;DHT22;2816;49.778;9.986;2022-08-21T08:56:20;20.50;99.90
5588;DHT22;2816;49.778;9.986;2022-08-21T08:58:50;20.70;99.90
5588;DHT22;2816;49.778;9.986;2022-08-21T09:01:20;20.90;99.90
5588;DHT22;2816;49.778;9.986;2022-08-21T09:03:48;21.00;99.90
5588;DHT22;2816;49.778;9.986;2022-08-21T09:06:28;21.00;99.90
5588;DHT22;2816;49.778;9.986;2022-08-21T09:09:05;21.10;99.90
5588;DHT22;2816;49.778;9.986;2022-08-21T09:11:50;21.20;99.90
5588;DHT22;2816;49.778;9.986;2022-08-21T09:14:25;21.30;99.90
5588;DHT22;2816;49.778;9.986;2022-08-21T09:16:59;21.30;99.90
5588;DHT22;2816;49.778;9.986;2022-08-21T09:19:39;21.50;99.90
5588;DHT22;2816;49.778;9.986;2022-08-21T09:22:17;21.50;99.90
5588;DHT22;2816;49.778;9.986;2022-08-21T09:24:51;21.60;99.90
5588;DHT22;2816;49.778;9.986;2022-08-21T09:27:20;21.80;99.90
5588;DHT22;2816;49.778;9.986;2022-08-21T09:29:50;21.80;99.90
5588;DHT22;2816;49.778;9.986;2022-08-21T09:32:23;21.80;99.90
5588;DHT22;2816;49.778;9.986;2022-08-21T09:34:58;21.80;99.90
5588;DHT22;2816;49.778;9.986;2022-08-21T09:37:27;21.90;99.90
5588;DHT22;2816;49.778;9.986;2022-08-21T09:39:56;22.00;99.90
5588;DHT22;2816;49.778;9.986;2022-08-21T09:42:26;22.00;99.90
5588;DHT22;2816;49.778;9.986;2022-08-21T09:45:12;22.10;99.90
5588;DHT22;2816;49.778;9.986;2022-08-21T09:47:41;22.20;99.90
5588;DHT22;2816;49.778;9.986;2022-08-21T09:50:12;22.40;99.90
5588;DHT22;2816;49.778;9.986;2022-08-21T09:52:48;22.40;99.90
5588;DHT22;2816;49.778;9.986;2022-08-21T09:55:18;22.50;99.90
5588;DHT22;2816;49.778;9.986;2022-08-21T09:58:00;22.60;99.90
5588;DHT22;2816;49.778;9.986;2022-08-21T10:00:29;22.80;99.90
5588;DHT22;2816;49.778;9.986;2022-08-21T10:03:13;22.80;99.90
5588;DHT22;2816;49.778;9.986;2022-08-21T10:05:50;22.80;99.90
5588;DHT22;2816;49.778;9.986;2022-08-21T10:08:18;22.90;99.90
5588;DHT22;2816;49.778;9.986;2022-08-21T10:10:50;22.90;99.90
5588;DHT22;2816;49.778;9.986;2022-08-21T10:13:21;22.80;99.90
5588;DHT22;2816;49.778;9.986;2022-08-21T10:16:02;22.70;99.90
5588;DHT22;2816;49.778;9.986;2022-08-21T10:18:36;23.00;99.90
5588;DHT22;2816;49.778;9.986;2022-08-21T10:21:11;23.20;99.90
5588;DHT22;2816;49.778;9.986;2022-08-21T10:23:51;23.40;99.90
5588;DHT22;2816;49.778;9.986;2022-08-21T10:26:27;23.40;99.90
5588;DHT22;2816;49.778;9.986;2022-08-21T10:29:02;23.40;99.90
5588;DHT22;2816;49.778;9.986;2022-08-21T10:31:36;23.70;99.90
5588;DHT22;2816;49.778;9.986;2022-08-21T10:34:21;23.90;99.90
5588;DHT22;2816;49.778;9.986;2022-08-21T10:36:59;24.00;99.00
5588;DHT22;2816;49.778;9.986;2022-08-21T10:39:33;24.00;97.60
5588;DHT22;2816;49.778;9.986;2022-08-21T10:42:21;24.20;97.20
5588;DHT22;2816;49.778;9.986;2022-08-21T10:45:02;24.30;96.60
5588;DHT22;2816;49.778;9.986;2022-08-21T10:47:38;24.50;96.10
5588;DHT22;2816;49.778;9.986;2022-08-21T10:50:15;24.40;96.00
5588;DHT22;2816;49.778;9.986;2022-08-21T10:53:05;24.40;95.40
5588;DHT22;2816;49.778;9.986;2022-08-21T10:55:37;24.30;95.90
5588;DHT22;2816;49.778;9.986;2022-08-21T10:58:10;24.50;94.70
5588;DHT22;2816;49.778;9.986;2022-08-21T11:00:43;24.90;94.50
5588;DHT22;2816;49.778;9.986;2022-08-21T11:03:16;25.30;94.30
5588;DHT22;2816;49.778;9.986;2022-08-21T11:05:50;25.50;94.50
5588;DHT22;2816;49.778;9.986;2022-08-21T11:08:23;25.30;93.80
5588;DHT22;2816;49.778;9.986;2022-08-21T11:10:53;24.90;93.50
5588;DHT22;2816;49.778;9.986;2022-08-21T11:13:27;25.40;93.40
5588;DHT22;2816;49.778;9.986;2022-08-21T11:16:02;25.50;93.20
5588;DHT22;2816;49.778;9.986;2022-08-21T11:18:34;25.50;94.40
5588;DHT22;2816;49.778;9.986;2022-08-21T11:21:15;25.50;92.30
5588;DHT22;2816;49.778;9.986;2022-08-21T11:23:53;25.30;91.80
5588;DHT22;2816;49.778;9.986;2022-08-21T11:26:28;25.30;92.00
5588;DHT22;2816;49.778;9.986;2022-08-21T11:29:00;25.30;91.40
5588;DHT22;2816;49.778;9.986;2022-08-21T11:31:45;25.40;92.10
5588;DHT22;2816;49.778;9.986;2022-08-21T11:34:26;25.60;91.30
5588;DHT22;2816;49.778;9.986;2022-08-21T11:37:01;25.80;90.80
5588;DHT22;2816;49.778;9.986;2022-08-21T11:39:41;26.00;90.80
5588;DHT22;2816;49.778;9.986;2022-08-21T11:42:18;26.10;90.10
5588;DHT22;2816;49.778;9.986;2022-08-21T11:44:53;26.40;91.20
5588;DHT22;2816;49.778;9.986;2022-08-21T11:47:29;26.50;89.30
5588;DHT22;2816;49.778;9.986;2022-08-21T11:50:12;26.60;89.40
5588;DHT22;2816;49.778;9.986;2022-08-21T11:52:45;26.50;89.00
5588;DHT22;2816;49.778;9.986;2022-08-21T11:55:15;26.60;90.20
5588;DHT22;2816;49.778;9.986;2022-08-21T11:57:51;26.40;86.40
5588;DHT22;2816;49.778;9.986;2022-08-21T12:00:22;26.30;86.80
5588;DHT22;2816;49.778;9.986;2022-08-21T12:02:53;25.90;85.40
5588;DHT22;2816;49.778;9.986;2022-08-21T12:05:28;25.70;87.20
5588;DHT22;2816;49.778;9.986;2022-08-21T12:08:04;25.80;88.80
5588;DHT22;2816;49.778;9.986;2022-08-21T12:10:34;26.00;87.00
5588;DHT22;2816;49.778;9.986;2022-08-21T12:13:10;26.30;87.40
5588;DHT22;2816;49.778;9.986;2022-08-21T12:15:39;26.50;88.60
5588;DHT22;2816;49.778;9.986;2022-08-21T12:18:18;27.10;86.50
5588;DHT22;2816;49.778;9.986;2022-08-21T12:20:58;27.00;83.90
5588;DHT22;2816;49.778;9.986;2022-08-21T12:23:29;27.00;84.30
5588;DHT22;2816;49.778;9.986;2022-08-21T12:26:15;27.00;83.50
5588;DHT22;2816;49.778;9.986;2022-08-21T12:28:44;26.90;83.00
5588;DHT22;2816;49.778;9.986;2022-08-21T12:31:20;27.30;79.00
5588;DHT22;2816;49.778;9.986;2022-08-21T12:33:54;27.10;78.10
5588;DHT22;2816;49.778;9.986;2022-08-21T12:36:24;27.10;80.60
5588;DHT22;2816;49.778;9.986;2022-08-21T12:38:56;26.70;79.30
5588;DHT22;2816;49.778;9.986;2022-08-21T12:41:28;26.70;80.30
5588;DHT22;2816;49.778;9.986;2022-08-21T12:43:59;26.60;82.50
5588;DHT22;2816;49.778;9.986;2022-08-21T12:46:32;26.80;81.80
5588;DHT22;2816;49.778;9.986;2022-08-21T12:49:07;26.80;79.50
5588;DHT22;2816;49.778;9.986;2022-08-21T12:51:42;27.00;77.70
5588;DHT22;2816;49.778;9.986;2022-08-21T12:54:23;27.40;76.60
5588;DHT22;2816;49.778;9.986;2022-08-21T12:56:56;27.40;74.00
5588;DHT22;2816;49.778;9.986;2022-08-21T12:59:23;27.30;76.30
5588;DHT22;2816;49.778;9.986;2022-08-21T13:01:51;27.10;80.60
5588;DHT22;2816;49.778;9.986;2022-08-21T13:04:22;26.80;76.20
5588;DHT22;2816;49.778;9.986;2022-08-21T13:06:54;26.80;77.50
5588;DHT22;2816;49.778;9.986;2022-08-21T13:09:29;26.80;77.40
5588;DHT22;2816;49.778;9.986;2022-08-21T13:11:57;26.70;77.20
5588;DHT22;2816;49.778;9.986;2022-08-21T13:14:30;26.70;77.00
5588;DHT22;2816;49.778;9.986;2022-08-21T13:16:59;26.50;77.30
5588;DHT22;2816;49.778;9.986;2022-08-21T13:19:26;26.40;78.40
5588;DHT22;2816;49.778;9.986;2022-08-21T13:21:55;26.60;78.80
5588;DHT22;2816;49.778;9.986;2022-08-21T13:24:24;26.60;78.20
5588;DHT22;2816;49.778;9.986;2022-08-21T13:26:53;26.90;77.10
5588;DHT22;2816;49.778;9.986;2022-08-21T13:29:23;27.10;76.20
5588;DHT22;2816;49.778;9.986;2022-08-21T13:31:52;27.20;75.20
5588;DHT22;2816;49.778;9.986;2022-08-21T13:34:21;27.40;75.60
5588;DHT22;2816;49.778;9.986;2022-08-21T13:36:51;27.90;74.10
5588;DHT22;2816;49.778;9.986;2022-08-21T13:39:19;27.70;72.30
5588;DHT22;2816;49.778;9.986;2022-08-21T13:41:49;27.90;73.50
5588;DHT22;2816;49.778;9.986;2022-08-21T13:44:21;27.50;71.00
5588;DHT22;2816;49.778;9.986;2022-08-21T13:46:52;27.30;71.90
5588;DHT22;2816;49.778;9.986;2022-08-21T13:49:26;27.40;71.60
5588;DHT22;2816;49.778;9.986;2022-08-21T13:51:55;27.90;69.90
5588;DHT22;2816;49.778;9.986;2022-08-21T13:54:25;28.10;69.90
5588;DHT22;2816;49.778;9.986;2022-08-21T13:56:53;28.20;69.00
5588;DHT22;2816;49.778;9.986;2022-08-21T13:59:26;28.30;73.90
5588;DHT22;2816;49.778;9.986;2022-08-21T14:01:55;28.30;67.90
5588;DHT22;2816;49.778;9.986;2022-08-21T14:04:32;28.30;68.20
5588;DHT22;2816;49.778;9.986;2022-08-21T14:07:00;28.70;66.30
5588;DHT22;2816;49.778;9.986;2022-08-21T14:09:32;29.00;65.10
5588;DHT22;2816;49.778;9.986;2022-08-21T14:12:01;29.50;65.40
5588;DHT22;2816;49.778;9.986;2022-08-21T14:14:32;29.70;67.80
5588;DHT22;2816;49.778;9.986;2022-08-21T14:17:03;29.50;62.40
5588;DHT22;2816;49.778;9.986;2022-08-21T14:19:37;29.60;64.00
5588;DHT22;2816;49.778;9.986;2022-08-21T14:22:22;29.30;61.90
5588;DHT22;2816;49.778;9.986;2022-08-21T14:24:59;29.40;62.10
5588;DHT22;2816;49.778;9.986;2022-08-21T14:27:27;29.10;61.80
5588;DHT22;2816;49.778;9.986;2022-08-21T14:30:00;29.50;61.20
5588;DHT22;2816;49.778;9.986;2022-08-21T14:32:30;29.90;59.60
5588;DHT22;2816;49.778;9.986;2022-08-21T14:35:03;30.00;57.70
5588;DHT22;2816;49.778;9.986;2022-08-21T14:37:30;30.10;58.30
5588;DHT22;2816;49.778;9.986;2022-08-21T14:39:57;29.70;57.70
5588;DHT22;2816;49.778;9.986;2022-08-21T14:42:24;29.60;59.90
5588;DHT22;2816;49.778;9.986;2022-08-21T14:44:53;29.90;58.70
5588;DHT22;2816;49.778;9.986;2022-08-21T14:47:22;30.20;57.10
5588;DHT22;2816;49.778;9.986;2022-08-21T14:49:49;29.80;56.70
5588;DHT22;2816;49.778;9.986;2022-08-21T14:52:19;30.10;56.60
5588;DHT22;2816;49.778;9.986;2022-08-21T14:54:48;30.20;58.40
5588;DHT22;2816;49.778;9.986;2022-08-21T14:57:15;30.40;53.80
5588;DHT22;2816;49.778;9.986;2022-08-21T14:59:42;30.40;53.40
5588;DHT22;2816;49.778;9.986;2022-08-21T15:02:09;29.70;55.80
5588;DHT22;2816;49.778;9.986;2022-08-21T15:04:38;29.60;59.10
5588;DHT22;2816;49.778;9.986;2022-08-21T15:07:05;29.90;53.80
5588;DHT22;2816;49.778;9.986;2022-08-21T15:09:32;29.70;53.50
5588;DHT22;2816;49.778;9.986;2022-08-21T15:12:00;29.90;54.60
5588;DHT22;2816;49.778;9.986;2022-08-21T15:14:30;29.90;54.70
5588;DHT22;2816;49.778;9.986;2022-08-21T15:16:59;30.00;53.10
5588;DHT22;2816;49.778;9.986;2022-08-21T15:19:26;29.60;52.20
5588;DHT22;2816;49.778;9.986;2022-08-21T15:21:56;29.60;51.90
5588;DHT22;2816;49.778;9.986;2022-08-21T15:24:23;29.80;54.40
5588;DHT22;2816;49.778;9.986;2022-08-21T15:26:50;29.70;52.90
5588;DHT22;2816;49.778;9.986;2022-08-21T15:29:18;29.40;53.10
5588;DHT22;2816;49.778;9.986;2022-08-21T15:31:51;29.50;53.20
5588;DHT22;2816;49.778;9.986;2022-08-21T15:34:19;29.30;53.50
5588;DHT22;2816;49.778;9.986;2022-08-21T15:36:46;29.30;53.70
5588;DHT22;2816;49.778;9.986;2022-08-21T15:39:14;29.30;52.50
5588;DHT22;2816;49.778;9.986;2022-08-21T15:41:42;29.50;54.30
5588;DHT22;2816;49.778;9.986;2022-08-21T15:44:09;29.10;54.60
5588;DHT22;2816;49.778;9.986;2022-08-21T15:46:38;29.00;53.00
5588;DHT22;2816;49.778;9.986;2022-08-21T15:49:06;29.30;52.90
5588;DHT22;2816;49.778;9.986;2022-08-21T15:51:33;29.20;53.30
5588;DHT22;2816;49.778;9.986;2022-08-21T15:54:00;29.10;54.50
5588;DHT22;2816;49.778;9.986;2022-08-21T15:56:34;29.30;53.60
5588;DHT22;2816;49.778;9.986;2022-08-21T15:59:05;28.70;54.40
5588;DHT22;2816;49.778;9.986;2022-08-21T16:01:33;28.80;53.00
5588;DHT22;2816;49.778;9.986;2022-08-21T16:04:00;28.70;53.10
5588;DHT22;2816;49.778;9.986;2022-08-21T16:06:28;28.60;54.20
5588;DHT22;2816;49.778;9.986;2022-08-21T16:08:55;28.60;53.30
5588;DHT22;2816;49.778;9.986;2022-08-21T16:11:22;28.70;52.90
5588;DHT22;2816;49.778;9.986;2022-08-21T16:13:51;28.80;57.70
5588;DHT22;2816;49.778;9.986;2022-08-21T16:16:19;28.80;54.30
5588;DHT22;2816;49.778;9.986;2022-08-21T16:18:47;28.90;53.60
5588;DHT22;2816;49.778;9.986;2022-08-21T16:21:15;29.00;53.10